sensor_id;sensor_type;location;lat;lon;timestamp;pressure;altitude;pressure_sealevel;temperature;humidity
40948;BME280;49382;-25.924;28.194;2022-11-20T00:01:18;85070.56;;;21.06;41.48
40948;BME280;49382;-25.924;28.194;2022-11-20T00:03:41;85067.65;;;20.41;40.91
40948;BME280;49382;-25.924;28.194;2022-11-20T00:06:09;85066.28;;;20.28;39.37
40948;BME280;49382;-25.924;28.194;2022-11-20T00:08:33;85064.58;;;20.76;37.94
40948;BME280;49382;-25.924;28.194;2022-11-20T00:11:03;85063.05;;;20.30;37.08
40948;BME280;49382;-25.924;28.194;2022-11-20T00:13:24;85058.45;;;20.48;35.42
40948;BME280;49382;-25.924;28.194;2022-11-20T00:15:57;85060.25;;;20.46;34.69
40948;BME280;49382;-25.924;28.194;2022-11-20T00:18:15;85063.08;;;21.00;33.11
40948;BME280;49382;-25.924;28.194;2022-11-20T00:20:41;85065.21;;;20.87;31.92
40948;BME280;49382;-25.924;28.194;2022-11-20T00:23:06;85064.17;;;20.28;31.78
40948;BME280;49382;-25.924;28.194;2022-11-20T00:25:34;85061.68;;;20.20;31.07
40948;BME280;49382;-25.924;28.194;2022-11-20T00:27:58;85064.83;;;20.79;30.05
40948;BME280;49382;-25.924;28.194;2022-11-20T00:30:24;85065.52;;;21.41;28.34
40948;BME280;49382;-25.924;28.194;2022-11-20T00:32:50;85066.55;;;20.84;28.15
40948;BME280;49382;-25.924;28.194;2022-11-20T00:35:16;85066.76;;;21.42;26.93
40948;BME280;49382;-25.924;28.194;2022-11-20T00:37:42;85070.61;;;21.36;26.73
40948;BME280;49382;-25.924;28.194;2022-11-20T00:40:08;85069.12;;;21.40;26.16
40948;BME280;49382;-25.924;28.194;2022-11-20T00:42:33;85068.71;;;21.09;26.39
40948;BME280;49382;-25.924;28.194;2022-11-20T00:44:59;85064.65;;;21.69;24.92
40948;BME280;49382;-25.924;28.194;2022-11-20T00:47:24;85060.56;;;21.57;24.74
40948;BME280;49382;-25.924;28.194;2022-11-20T00:49:50;85063.52;;;22.28;23.78
40948;BME280;49382;-25.924;28.194;2022-11-20T00:52:16;85061.09;;;22.02;23.90
40948;BME280;49382;-25.924;28.194;2022-11-20T00:54:42;85058.03;;;22.02;24.22
40948;BME280;49382;-25.924;28.194;2022-11-20T00:57:08;85054.10;;;21.53;24.41
40948;BME280;49382;-25.924;28.194;2022-11-20T00:59:33;85059.12;;;21.17;24.67
40948;BME280;49382;-25.924;28.194;2022-11-20T01:01:59;85064.59;;;20.97;23.76
40948;BME280;49382;-25.924;28.194;2022-11-20T01:04:25;85061.96;;;22.30;22.72
40948;BME280;49382;-25.924;28.194;2022-11-20T01:06:51;85061.35;;;21.56;22.68
40948;BME280;49382;-25.924;28.194;2022-11-20T01:09:17;85061.09;;;21.36;23.15
40948;BME280;49382;-25.924;28.194;2022-11-20T01:11:43;85062.36;;;21.14;23.36
40948;BME280;49382;-25.924;28.194;2022-11-20T01:14:11;85055.57;;;21.55;22.66
40948;BME280;49382;-25.924;28.194;2022-11-20T01:16:35;85053.33;;;21.34;22.83
40948;BME280;49382;-25.924;28.194;2022-11-20T01:19:00;85055.11;;;21.30;23.11
40948;BME280;49382;-25.924;28.194;2022-11-20T01:21:25;85053.42;;;21.24;22.95
40948;BME280;49382;-25.924;28.194;2022-11-20T01:23:50;85045.85;;;21.68;22.16
40948;BME280;49382;-25.924;28.194;2022-11-20T01:26:18;85049.79;;;21.03;22.47
40948;BME280;49382;-25.924;28.194;2022-11-20T01:28:41;85039.79;;;21.30;22.24
40948;BME280;49382;-25.924;28.194;2022-11-20T01:31:11;85040.65;;;22.03;21.60
40948;BME280;49382;-25.924;28.194;2022-11-20T01:33:32;85041.08;;;21.21;21.79
40948;BME280;49382;-25.924;28.194;2022-11-20T01:36:04;85039.23;;;21.60;21.13
40948;BME280;49382;-25.924;28.194;2022-11-20T01:38:23;85040.38;;;21.12;21.26
40948;BME280;49382;-25.924;28.194;2022-11-20T01:40:54;85040.81;;;21.94;20.55
40948;BME280;49382;-25.924;28.194;2022-11-20T01:43:17;85040.93;;;21.85;20.49
40948;BME280;49382;-25.924;28.194;2022-11-20T01:48:05;85042.74;;;22.12;20.07
40948;BME280;49382;-25.924;28.194;2022-11-20T01:50:30;85050.13;;;21.25;20.69
40948;BME280;49382;-25.924;28.194;2022-11-20T01:53:00;85051.73;;;22.27;19.93
40948;BME280;49382;-25.924;28.194;2022-11-20T01:55:26;85057.78;;;21.07;21.09
40948;BME280;49382;-25.924;28.194;2022-11-20T01:57:49;85055.37;;;20.83;21.00
40948;BME280;49382;-25.924;28.194;2022-11-20T02:00:17;85052.15;;;21.53;20.88
40948;BME280;49382;-25.924;28.194;2022-11-20T02:02:41;85054.90;;;20.59;21.21
40948;BME280;49382;-25.924;28.194;2022-11-20T02:05:14;85060.91;;;20.87;21.37
40948;BME280;49382;-25.924;28.194;2022-11-20T02:07:31;85062.65;;;20.77;21.31
40948;BME280;49382;-25.924;28.194;2022-11-20T02:09:57;85062.88;;;21.08;21.33
40948;BME280;49382;-25.924;28.194;2022-11-20T02:12:22;85066.10;;;20.66;21.32
40948;BME280;49382;-25.924;28.194;2022-11-20T02:14:47;85067.17;;;21.26;21.09
40948;BME280;49382;-25.924;28.194;2022-11-20T02:17:13;85066.92;;;21.29;21.47
40948;BME280;49382;-25.924;28.194;2022-11-20T02:19:39;85069.36;;;21.17;21.62
40948;BME280;49382;-25.924;28.194;2022-11-20T02:22:10;85067.62;;;20.10;22.88
40948;BME280;49382;-25.924;28.194;2022-11-20T02:24:31;85067.58;;;20.74;21.86
40948;BME280;49382;-25.924;28.194;2022-11-20T02:27:00;85069.13;;;20.80;21.55
40948;BME280;49382;-25.924;28.194;2022-11-20T02:29:26;85069.71;;;20.63;21.57
40948;BME280;49382;-25.924;28.194;2022-11-20T02:31:48;85067.16;;;20.02;21.64
40948;BME280;49382;-25.924;28.194;2022-11-20T02:34:14;85069.48;;;19.87;21.84
40948;BME280;49382;-25.924;28.194;2022-11-20T02:36:41;85072.02;;;19.75;21.88
40948;BME280;49382;-25.924;28.194;2022-11-20T02:39:06;85071.63;;;20.04;21.87
40948;BME280;49382;-25.924;28.194;2022-11-20T02:41:34;85076.52;;;19.55;21.88
40948;BME280;49382;-25.924;28.194;2022-11-20T02:43:57;85079.70;;;20.19;21.30
40948;BME280;49382;-25.924;28.194;2022-11-20T02:46:23;85083.36;;;20.50;21.33
40948;BME280;49382;-25.924;28.194;2022-11-20T02:48:49;85087.29;;;19.88;21.77
40948;BME280;49382;-25.924;28.194;2022-11-20T02:51:15;85087.01;;;20.51;21.11
40948;BME280;49382;-25.924;28.194;2022-11-20T02:53:41;85087.05;;;19.18;22.09
40948;BME280;49382;-25.924;28.194;2022-11-20T02:56:07;85092.38;;;20.20;21.47
40948;BME280;49382;-25.924;28.194;2022-11-20T02:58:32;85091.85;;;19.43;21.99
40948;BME280;49382;-25.924;28.194;2022-11-20T03:00:58;85092.92;;;19.06;22.41
40948;BME280;49382;-25.924;28.194;2022-11-20T03:03:24;85102.05;;;18.58;22.75
40948;BME280;49382;-25.924;28.194;2022-11-20T03:05:50;85103.15;;;19.32;22.49
40948;BME280;49382;-25.924;28.194;2022-11-20T03:08:15;85106.58;;;19.89;21.65
40948;BME280;49382;-25.924;28.194;2022-11-20T03:10:40;85108.09;;;19.68;21.54
40948;BME280;49382;-25.924;28.194;2022-11-20T03:13:06;85109.94;;;19.37;22.03
40948;BME280;49382;-25.924;28.194;2022-11-20T03:15:32;85110.07;;;19.30;22.01
40948;BME280;49382;-25.924;28.194;2022-11-20T03:17:58;85112.49;;;20.03;21.50
40948;BME280;49382;-25.924;28.194;2022-11-20T03:20:24;85116.91;;;20.01;21.22
40948;BME280;49382;-25.924;28.194;2022-11-20T03:22:50;85114.26;;;20.49;20.69
40948;BME280;49382;-25.924;28.194;2022-11-20T03:25:16;85115.65;;;19.45;21.84
40948;BME280;49382;-25.924;28.194;2022-11-20T03:27:41;85118.01;;;19.47;21.38
40948;BME280;49382;-25.924;28.194;2022-11-20T03:30:08;85118.43;;;19.69;21.12
40948;BME280;49382;-25.924;28.194;2022-11-20T03:32:33;85125.95;;;20.19;21.13
40948;BME280;49382;-25.924;28.194;2022-11-20T03:34:58;85132.08;;;20.41;20.52
40948;BME280;49382;-25.924;28.194;2022-11-20T03:37:23;85137.37;;;20.43;20.40
40948;BME280;49382;-25.924;28.194;2022-11-20T03:39:49;85136.37;;;20.80;19.97
40948;BME280;49382;-25.924;28.194;2022-11-20T03:42:15;85136.41;;;19.97;20.63
40948;BME280;49382;-25.924;28.194;2022-11-20T03:44:40;85134.57;;;20.25;20.78
40948;BME280;49382;-25.924;28.194;2022-11-20T03:47:06;85134.61;;;20.72;20.70
40948;BME280;49382;-25.924;28.194;2022-11-20T03:49:31;85137.91;;;21.10;20.73
40948;BME280;49382;-25.924;28.194;2022-11-20T03:51:57;85140.59;;;21.11;20.70
40948;BME280;49382;-25.924;28.194;2022-11-20T03:54:23;85146.00;;;21.20;20.45
40948;BME280;49382;-25.924;28.194;2022-11-20T03:56:49;85147.43;;;21.42;20.35
40948;BME280;49382;-25.924;28.194;2022-11-20T03:59:15;85149.01;;;20.83;20.44
40948;BME280;49382;-25.924;28.194;2022-11-20T04:01:41;85145.50;;;20.93;20.82
40948;BME280;49382;-25.924;28.194;2022-11-20T04:04:06;85147.19;;;21.69;20.42
40948;BME280;49382;-25.924;28.194;2022-11-20T04:06:35;85146.78;;;21.58;20.18
40948;BME280;49382;-25.924;28.194;2022-11-20T04:08:58;85149.21;;;21.73;20.16
40948;BME280;49382;-25.924;28.194;2022-11-20T04:11:25;85159.08;;;22.34;19.74
40948;BME280;49382;-25.924;28.194;2022-11-20T04:13:52;85161.31;;;22.42;19.81
40948;BME280;49382;-25.924;28.194;2022-11-20T04:16:16;85165.54;;;22.00;19.56
40948;BME280;49382;-25.924;28.194;2022-11-20T04:18:41;85163.07;;;22.38;19.16
40948;BME280;49382;-25.924;28.194;2022-11-20T04:21:08;85167.56;;;22.33;19.26
40948;BME280;49382;-25.924;28.194;2022-11-20T04:23:33;85166.67;;;23.05;19.07
40948;BME280;49382;-25.924;28.194;2022-11-20T04:26:02;85178.28;;;22.06;19.21
40948;BME280;49382;-25.924;28.194;2022-11-20T04:28:25;85180.86;;;22.50;19.16
40948;BME280;49382;-25.924;28.194;2022-11-20T04:30:50;85181.05;;;22.91;19.00
40948;BME280;49382;-25.924;28.194;2022-11-20T04:33:16;85180.37;;;22.69;18.71
40948;BME280;49382;-25.924;28.194;2022-11-20T04:35:42;85180.53;;;22.55;19.12
40948;BME280;49382;-25.924;28.194;2022-11-20T04:38:08;85186.03;;;23.14;19.07
40948;BME280;49382;-25.924;28.194;2022-11-20T04:40:33;85190.17;;;23.64;19.17
40948;BME280;49382;-25.924;28.194;2022-11-20T04:43:00;85184.27;;;23.71;18.54
40948;BME280;49382;-25.924;28.194;2022-11-20T04:45:25;85195.27;;;24.22;18.75
40948;BME280;49382;-25.924;28.194;2022-11-20T04:47:51;85198.87;;;24.45;18.72
40948;BME280;49382;-25.924;28.194;2022-11-20T04:50:17;85200.55;;;24.67;18.57
40948;BME280;49382;-25.924;28.194;2022-11-20T04:52:42;85202.76;;;24.27;19.00
40948;BME280;49382;-25.924;28.194;2022-11-20T04:55:08;85200.80;;;24.80;18.59
40948;BME280;49382;-25.924;28.194;2022-11-20T04:57:34;85204.15;;;24.63;18.90
40948;BME280;49382;-25.924;28.194;2022-11-20T05:00:00;85206.22;;;25.68;18.57
40948;BME280;49382;-25.924;28.194;2022-11-20T05:02:26;85205.22;;;24.94;19.05
40948;BME280;49382;-25.924;28.194;2022-11-20T05:04:51;85211.35;;;24.28;20.77
40948;BME280;49382;-25.924;28.194;2022-11-20T05:07:17;85214.37;;;25.39;18.24
40948;BME280;49382;-25.924;28.194;2022-11-20T05:09:43;85211.74;;;25.23;18.27
40948;BME280;49382;-25.924;28.194;2022-11-20T05:12:09;85215.40;;;25.47;18.79
40948;BME280;49382;-25.924;28.194;2022-11-20T05:14:34;85219.39;;;25.62;17.71
40948;BME280;49382;-25.924;28.194;2022-11-20T05:17:00;85221.43;;;24.94;17.44
40948;BME280;49382;-25.924;28.194;2022-11-20T05:19:26;85227.96;;;25.44;17.02
40948;BME280;49382;-25.924;28.194;2022-11-20T05:21:52;85235.64;;;25.73;18.20
40948;BME280;49382;-25.924;28.194;2022-11-20T05:24:17;85234.54;;;25.73;18.10
40948;BME280;49382;-25.924;28.194;2022-11-20T05:26:43;85232.17;;;25.82;17.04
40948;BME280;49382;-25.924;28.194;2022-11-20T05:29:10;85229.41;;;25.74;17.63
40948;BME280;49382;-25.924;28.194;2022-11-20T05:31:34;85230.30;;;25.15;17.47
40948;BME280;49382;-25.924;28.194;2022-11-20T05:34:00;85237.43;;;26.36;17.35
40948;BME280;49382;-25.924;28.194;2022-11-20T05:36:25;85234.16;;;25.06;16.96
40948;BME280;49382;-25.924;28.194;2022-11-20T05:38:51;85239.84;;;25.42;17.36
40948;BME280;49382;-25.924;28.194;2022-11-20T05:41:18;85238.74;;;26.50;17.43
40948;BME280;49382;-25.924;28.194;2022-11-20T05:43:45;85239.80;;;25.87;17.00
40948;BME280;49382;-25.924;28.194;2022-11-20T05:46:10;85244.50;;;26.56;16.32
40948;BME280;49382;-25.924;28.194;2022-11-20T05:48:34;85245.91;;;26.38;15.83
40948;BME280;49382;-25.924;28.194;2022-11-20T05:51:01;85242.28;;;25.33;15.43
40948;BME280;49382;-25.924;28.194;2022-11-20T05:53:26;85240.89;;;26.28;15.92
40948;BME280;49382;-25.924;28.194;2022-11-20T05:55:57;85240.21;;;25.49;15.67
40948;BME280;49382;-25.924;28.194;2022-11-20T05:58:17;85239.22;;;25.62;16.11
40948;BME280;49382;-25.924;28.194;2022-11-20T06:00:43;85236.84;;;25.51;15.25
40948;BME280;49382;-25.924;28.194;2022-11-20T06:03:09;85240.08;;;26.87;14.55
40948;BME280;49382;-25.924;28.194;2022-11-20T06:05:34;85243.37;;;27.08;15.79
40948;BME280;49382;-25.924;28.194;2022-11-20T06:08:01;85243.38;;;26.72;15.82
40948;BME280;49382;-25.924;28.194;2022-11-20T06:10:25;85239.81;;;26.46;15.68
40948;BME280;49382;-25.924;28.194;2022-11-20T06:12:51;85243.91;;;27.33;16.07
40948;BME280;49382;-25.924;28.194;2022-11-20T06:15:17;85247.85;;;27.50;16.59
40948;BME280;49382;-25.924;28.194;2022-11-20T06:17:43;85247.07;;;27.60;15.93
40948;BME280;49382;-25.924;28.194;2022-11-20T06:20:09;85247.68;;;27.89;16.16
40948;BME280;49382;-25.924;28.194;2022-11-20T06:22:34;85248.80;;;27.60;15.30
40948;BME280;49382;-25.924;28.194;2022-11-20T06:25:00;85252.01;;;27.54;15.78
40948;BME280;49382;-25.924;28.194;2022-11-20T06:27:26;85253.03;;;28.00;15.18
40948;BME280;49382;-25.924;28.194;2022-11-20T06:29:51;85250.82;;;27.44;16.06
40948;BME280;49382;-25.924;28.194;2022-11-20T06:32:17;85253.68;;;27.77;15.55
40948;BME280;49382;-25.924;28.194;2022-11-20T06:34:43;85249.72;;;26.74;15.75
40948;BME280;49382;-25.924;28.194;2022-11-20T06:37:09;85250.94;;;27.83;15.60
40948;BME280;49382;-25.924;28.194;2022-11-20T06:39:34;85252.82;;;28.01;15.87
40948;BME280;49382;-25.924;28.194;2022-11-20T06:42:00;85256.81;;;27.83;15.15
40948;BME280;49382;-25.924;28.194;2022-11-20T06:44:26;85257.49;;;27.35;15.50
40948;BME280;49382;-25.924;28.194;2022-11-20T06:46:52;85259.38;;;27.90;15.33
40948;BME280;49382;-25.924;28.194;2022-11-20T06:49:17;85262.26;;;28.35;16.13
40948;BME280;49382;-25.924;28.194;2022-11-20T06:51:43;85267.79;;;28.12;15.91
40948;BME280;49382;-25.924;28.194;2022-11-20T06:54:09;85263.63;;;27.69;14.42
40948;BME280;49382;-25.924;28.194;2022-11-20T06:56:35;85262.67;;;28.07;15.29
40948;BME280;49382;-25.924;28.194;2022-11-20T06:59:05;85265.12;;;27.80;14.94
40948;BME280;49382;-25.924;28.194;2022-11-20T07:01:26;85260.17;;;28.57;15.73
40948;BME280;49382;-25.924;28.194;2022-11-20T07:03:52;85257.02;;;27.74;16.00
40948;BME280;49382;-25.924;28.194;2022-11-20T07:06:17;85251.48;;;28.09;16.30
40948;BME280;49382;-25.924;28.194;2022-11-20T07:08:43;85261.75;;;27.52;15.94
40948;BME280;49382;-25.924;28.194;2022-11-20T07:11:12;85265.06;;;27.22;16.90
40948;BME280;49382;-25.924;28.194;2022-11-20T07:13:35;85262.08;;;28.04;18.17
40948;BME280;49382;-25.924;28.194;2022-11-20T07:16:02;85264.88;;;28.64;16.87
40948;BME280;49382;-25.924;28.194;2022-11-20T07:18:26;85264.42;;;28.98;16.77
40948;BME280;49382;-25.924;28.194;2022-11-20T07:20:52;85262.14;;;28.77;16.57
40948;BME280;49382;-25.924;28.194;2022-11-20T07:23:18;85259.19;;;28.83;16.73
40948;BME280;49382;-25.924;28.194;2022-11-20T07:25:44;85259.34;;;27.64;16.70
40948;BME280;49382;-25.924;28.194;2022-11-20T07:28:09;85258.61;;;28.63;16.49
40948;BME280;49382;-25.924;28.194;2022-11-20T07:30:35;85260.30;;;28.99;16.16
40948;BME280;49382;-25.924;28.194;2022-11-20T07:33:01;85255.22;;;28.74;16.66
40948;BME280;49382;-25.924;28.194;2022-11-20T07:35:27;85253.94;;;29.36;16.47
40948;BME280;49382;-25.924;28.194;2022-11-20T07:37:52;85251.54;;;28.85;14.84
40948;BME280;49382;-25.924;28.194;2022-11-20T07:40:18;85261.41;;;29.09;14.67
40948;BME280;49382;-25.924;28.194;2022-11-20T07:42:48;85258.35;;;29.26;15.18
40948;BME280;49382;-25.924;28.194;2022-11-20T07:45:10;85260.34;;;28.99;15.77
40948;BME280;49382;-25.924;28.194;2022-11-20T07:47:36;85256.51;;;29.04;16.62
40948;BME280;49382;-25.924;28.194;2022-11-20T07:50:01;85250.44;;;29.01;15.80
40948;BME280;49382;-25.924;28.194;2022-11-20T07:52:27;85247.84;;;29.15;16.19
40948;BME280;49382;-25.924;28.194;2022-11-20T07:54:53;85247.35;;;29.07;16.62
40948;BME280;49382;-25.924;28.194;2022-11-20T07:57:18;85240.45;;;29.49;14.80
40948;BME280;49382;-25.924;28.194;2022-11-20T07:59:44;85243.22;;;29.04;15.04
40948;BME280;49382;-25.924;28.194;2022-11-20T08:02:11;85235.87;;;29.10;14.90
40948;BME280;49382;-25.924;28.194;2022-11-20T08:04:35;85239.22;;;29.35;16.06
40948;BME280;49382;-25.924;28.194;2022-11-20T08:07:01;85236.44;;;29.42;15.87
40948;BME280;49382;-25.924;28.194;2022-11-20T08:09:27;85236.82;;;29.64;15.49
40948;BME280;49382;-25.924;28.194;2022-11-20T08:11:53;85231.81;;;29.50;15.80
40948;BME280;49382;-25.924;28.194;2022-11-20T08:14:18;85226.44;;;29.28;14.97
40948;BME280;49382;-25.924;28.194;2022-11-20T08:16:45;85223.55;;;29.51;15.92
40948;BME280;49382;-25.924;28.194;2022-11-20T08:19:10;85226.93;;;29.64;15.13
40948;BME280;49382;-25.924;28.194;2022-11-20T08:21:36;85225.17;;;29.66;15.90
40948;BME280;49382;-25.924;28.194;2022-11-20T08:24:01;85215.38;;;29.31;15.17
40948;BME280;49382;-25.924;28.194;2022-11-20T08:26:27;85215.94;;;29.53;14.92
40948;BME280;49382;-25.924;28.194;2022-11-20T08:28:54;85215.12;;;29.12;14.70
40948;BME280;49382;-25.924;28.194;2022-11-20T08:31:19;85209.43;;;28.97;12.92
40948;BME280;49382;-25.924;28.194;2022-11-20T08:33:44;85214.46;;;29.35;15.53
40948;BME280;49382;-25.924;28.194;2022-11-20T08:36:10;85211.79;;;29.93;15.33
40948;BME280;49382;-25.924;28.194;2022-11-20T08:38:36;85213.90;;;29.58;14.85
40948;BME280;49382;-25.924;28.194;2022-11-20T08:41:03;85208.10;;;28.60;14.68
40948;BME280;49382;-25.924;28.194;2022-11-20T08:43:27;85210.79;;;29.30;14.70
40948;BME280;49382;-25.924;28.194;2022-11-20T08:45:53;85211.74;;;29.51;15.73
40948;BME280;49382;-25.924;28.194;2022-11-20T08:48:19;85207.90;;;29.60;15.49
40948;BME280;49382;-25.924;28.194;2022-11-20T08:50:44;85208.95;;;29.19;17.10
40948;BME280;49382;-25.924;28.194;2022-11-20T08:53:10;85213.00;;;29.37;16.51
40948;BME280;49382;-25.924;28.194;2022-11-20T08:55:36;85215.95;;;29.61;15.18
40948;BME280;49382;-25.924;28.194;2022-11-20T08:58:04;85200.59;;;29.51;14.93
40948;BME280;49382;-25.924;28.194;2022-11-20T09:00:27;85209.70;;;29.90;15.85
40948;BME280;49382;-25.924;28.194;2022-11-20T09:02:53;85206.99;;;29.82;15.23
40948;BME280;49382;-25.924;28.194;2022-11-20T09:05:19;85200.93;;;29.56;15.40
40948;BME280;49382;-25.924;28.194;2022-11-20T09:07:45;85203.50;;;29.94;15.77
40948;BME280;49382;-25.924;28.194;2022-11-20T09:10:10;85199.16;;;28.98;14.85
40948;BME280;49382;-25.924;28.194;2022-11-20T09:12:36;85197.36;;;29.40;14.23
40948;BME280;49382;-25.924;28.194;2022-11-20T09:15:02;85192.82;;;29.73;16.19
40948;BME280;49382;-25.924;28.194;2022-11-20T09:17:28;85189.69;;;29.78;15.38
40948;BME280;49382;-25.924;28.194;2022-11-20T09:19:53;85191.04;;;29.71;16.38
40948;BME280;49382;-25.924;28.194;2022-11-20T09:22:19;85185.02;;;29.70;16.39
40948;BME280;49382;-25.924;28.194;2022-11-20T09:24:45;85182.96;;;29.77;14.49
40948;BME280;49382;-25.924;28.194;2022-11-20T09:27:11;85182.62;;;29.91;15.51
40948;BME280;49382;-25.924;28.194;2022-11-20T09:29:36;85179.35;;;29.33;14.60
40948;BME280;49382;-25.924;28.194;2022-11-20T09:32:02;85176.53;;;29.64;14.41
40948;BME280;49382;-25.924;28.194;2022-11-20T09:34:28;85171.78;;;29.39;15.41
40948;BME280;49382;-25.924;28.194;2022-11-20T09:36:54;85169.09;;;29.40;16.00
40948;BME280;49382;-25.924;28.194;2022-11-20T09:39:19;85164.36;;;29.57;14.95
40948;BME280;49382;-25.924;28.194;2022-11-20T09:41:59;85165.31;;;29.66;14.82
40948;BME280;49382;-25.924;28.194;2022-11-20T09:44:21;85166.14;;;29.80;16.23
40948;BME280;49382;-25.924;28.194;2022-11-20T09:46:40;85162.74;;;29.56;16.50
40948;BME280;49382;-25.924;28.194;2022-11-20T09:49:15;85160.99;;;29.14;15.13
40948;BME280;49382;-25.924;28.194;2022-11-20T09:51:35;85157.29;;;29.37;15.06
40948;BME280;49382;-25.924;28.194;2022-11-20T09:54:02;85158.30;;;29.41;16.43
40948;BME280;49382;-25.924;28.194;2022-11-20T09:56:21;85159.47;;;29.51;16.72
40948;BME280;49382;-25.924;28.194;2022-11-20T09:58:47;85159.87;;;29.39;16.36
40948;BME280;49382;-25.924;28.194;2022-11-20T10:01:13;85148.43;;;29.64;14.22
40948;BME280;49382;-25.924;28.194;2022-11-20T10:03:43;85142.51;;;29.85;15.01
40948;BME280;49382;-25.924;28.194;2022-11-20T10:06:03;85143.81;;;29.52;14.97
40948;BME280;49382;-25.924;28.194;2022-11-20T10:08:32;85143.81;;;29.13;15.06
40948;BME280;49382;-25.924;28.194;2022-11-20T10:10:59;85139.65;;;29.08;13.45
40948;BME280;49382;-25.924;28.194;2022-11-20T10:13:31;85141.33;;;29.24;14.05
40948;BME280;49382;-25.924;28.194;2022-11-20T10:15:54;85140.97;;;29.31;14.12
40948;BME280;49382;-25.924;28.194;2022-11-20T10:18:23;85133.40;;;29.54;13.64
40948;BME280;49382;-25.924;28.194;2022-11-20T10:20:44;85132.19;;;29.39;13.72
40948;BME280;49382;-25.924;28.194;2022-11-20T10:23:18;85126.21;;;29.20;13.37
40948;BME280;49382;-25.924;28.194;2022-11-20T10:25:38;85121.68;;;29.42;15.14
40948;BME280;49382;-25.924;28.194;2022-11-20T10:30:22;85126.72;;;29.18;17.30
40948;BME280;49382;-25.924;28.194;2022-11-20T10:32:48;85122.89;;;29.03;17.49
40948;BME280;49382;-25.924;28.194;2022-11-20T10:35:20;85126.99;;;28.98;16.20
40948;BME280;49382;-25.924;28.194;2022-11-20T10:37:38;85125.93;;;29.14;16.11
40948;BME280;49382;-25.924;28.194;2022-11-20T10:40:14;85122.03;;;29.09;16.13
40948;BME280;49382;-25.924;28.194;2022-11-20T10:42:34;85124.14;;;28.97;14.67
40948;BME280;49382;-25.924;28.194;2022-11-20T10:44:58;85122.39;;;29.16;15.69
40948;BME280;49382;-25.924;28.194;2022-11-20T10:47:19;85116.81;;;29.31;15.27
40948;BME280;49382;-25.924;28.194;2022-11-20T10:49:48;85116.87;;;29.36;15.63
40948;BME280;49382;-25.924;28.194;2022-11-20T10:52:16;85117.06;;;29.49;16.47
40948;BME280;49382;-25.924;28.194;2022-11-20T10:54:42;85120.45;;;29.50;15.63
40948;BME280;49382;-25.924;28.194;2022-11-20T10:57:06;85117.30;;;29.67;15.96
40948;BME280;49382;-25.924;28.194;2022-11-20T10:59:41;85113.28;;;29.49;16.56
40948;BME280;49382;-25.924;28.194;2022-11-20T11:01:53;85106.95;;;29.75;15.75
40948;BME280;49382;-25.924;28.194;2022-11-20T11:04:30;85103.16;;;29.39;13.16
40948;BME280;49382;-25.924;28.194;2022-11-20T11:06:47;85099.04;;;28.57;14.71
40948;BME280;49382;-25.924;28.194;2022-11-20T11:09:15;85098.15;;;28.84;15.78
40948;BME280;49382;-25.924;28.194;2022-11-20T11:11:38;85098.21;;;29.24;14.97
40948;BME280;49382;-25.924;28.194;2022-11-20T11:14:06;85094.64;;;29.16;14.64
40948;BME280;49382;-25.924;28.194;2022-11-20T11:16:27;85092.28;;;28.40;16.21
40948;BME280;49382;-25.924;28.194;2022-11-20T11:21:24;85086.72;;;29.50;15.48
40948;BME280;49382;-25.924;28.194;2022-11-20T11:23:45;85081.53;;;29.26;14.69
40948;BME280;49382;-25.924;28.194;2022-11-20T11:26:19;85076.90;;;29.97;16.06
40948;BME280;49382;-25.924;28.194;2022-11-20T11:28:36;85071.30;;;29.50;16.75
40948;BME280;49382;-25.924;28.194;2022-11-20T11:31:02;85071.35;;;29.41;16.66
40948;BME280;49382;-25.924;28.194;2022-11-20T11:33:29;85073.70;;;29.29;16.52
40948;BME280;49382;-25.924;28.194;2022-11-20T11:35:55;85067.87;;;29.56;16.40
40948;BME280;49382;-25.924;28.194;2022-11-20T11:38:27;85071.08;;;29.37;15.01
40948;BME280;49382;-25.924;28.194;2022-11-20T11:40:45;85069.34;;;29.33;15.07
40948;BME280;49382;-25.924;28.194;2022-11-20T11:43:20;85062.50;;;29.49;13.73
40948;BME280;49382;-25.924;28.194;2022-11-20T11:45:36;85052.01;;;29.14;13.29
40948;BME280;49382;-25.924;28.194;2022-11-20T11:48:03;85050.15;;;29.00;14.21
40948;BME280;49382;-25.924;28.194;2022-11-20T11:50:28;85046.78;;;28.62;12.94
40948;BME280;49382;-25.924;28.194;2022-11-20T11:53:02;85047.01;;;29.10;13.96
40948;BME280;49382;-25.924;28.194;2022-11-20T11:55:28;85043.88;;;29.15;14.85
40948;BME280;49382;-25.924;28.194;2022-11-20T11:57:49;85043.37;;;29.97;14.04
40948;BME280;49382;-25.924;28.194;2022-11-20T12:00:14;85041.95;;;29.91;12.75
40948;BME280;49382;-25.924;28.194;2022-11-20T12:02:42;85034.90;;;29.96;12.40
40948;BME280;49382;-25.924;28.194;2022-11-20T12:05:10;85035.27;;;29.92;12.88
40948;BME280;49382;-25.924;28.194;2022-11-20T12:07:37;85031.29;;;29.02;12.44
40948;BME280;49382;-25.924;28.194;2022-11-20T12:09:55;85026.91;;;29.38;10.90
40948;BME280;49382;-25.924;28.194;2022-11-20T12:12:23;85021.94;;;29.37;11.60
40948;BME280;49382;-25.924;28.194;2022-11-20T12:14:47;85017.55;;;29.38;11.95
40948;BME280;49382;-25.924;28.194;2022-11-20T12:17:12;85015.13;;;29.47;12.02
40948;BME280;49382;-25.924;28.194;2022-11-20T12:19:37;85014.45;;;29.46;12.31
40948;BME280;49382;-25.924;28.194;2022-11-20T12:22:10;85013.13;;;29.10;12.96
40948;BME280;49382;-25.924;28.194;2022-11-20T12:24:39;85011.31;;;29.40;11.99
40948;BME280;49382;-25.924;28.194;2022-11-20T12:27:03;85010.56;;;29.15;11.42
40948;BME280;49382;-25.924;28.194;2022-11-20T12:29:26;85006.87;;;29.87;11.28
40948;BME280;49382;-25.924;28.194;2022-11-20T12:31:58;85007.14;;;29.85;12.19
40948;BME280;49382;-25.924;28.194;2022-11-20T12:34:19;85003.36;;;29.85;12.47
40948;BME280;49382;-25.924;28.194;2022-11-20T12:36:43;85005.43;;;29.89;12.64
40948;BME280;49382;-25.924;28.194;2022-11-20T12:39:10;85003.38;;;29.93;12.09